sensor_id;sensor_type;location;lat;lon;timestamp;temperature;humidity
33149;DHT22;19506;51.040;3.856;2022-08-19T14:58:08;26.00;99.90
33149;DHT22;19506;51.040;3.856;2022-08-19T15:00:34;26.00;99.90
33149;DHT22;19506;51.040;3.856;2022-08-19T15:02:59;26.50;99.90
33149;DHT22;19506;51.040;3.856;2022-08-19T15:05:25;26.80;99.90
33149;DHT22;19506;51.040;3.856;2022-08-19T15:07:52;26.80;99.90
33149;DHT22;19506;51.040;3.856;2022-08-19T15:10:19;26.90;99.90
33149;DHT22;19506;51.040;3.856;2022-08-19T15:12:46;26.90;99.90
33149;DHT22;19506;51.040;3.856;2022-08-19T15:15:14;26.90;99.90
33149;DHT22;19506;51.040;3.856;2022-08-19T15:17:43;26.80;99.90
33149;DHT22;19506;51.040;3.856;2022-08-19T15:20:10;26.80;99.90
33149;DHT22;19506;51.040;3.856;2022-08-19T15:22:36;26.70;99.90
33149;DHT22;19506;51.040;3.856;2022-08-19T15:25:03;26.60;99.90
33149;DHT22;19506;51.040;3.856;2022-08-19T15:27:29;26.50;99.90
33149;DHT22;19506;51.040;3.856;2022-08-19T15:29:54;26.40;99.90
33149;DHT22;19506;51.040;3.856;2022-08-19T15:32:22;26.30;99.90
33149;DHT22;19506;51.040;3.856;2022-08-19T15:34:48;26.20;99.90
33149;DHT22;19506;51.040;3.856;2022-08-19T15:37:14;26.10;99.90
33149;DHT22;19506;51.040;3.856;2022-08-19T15:39:40;26.10;99.90
33149;DHT22;19506;51.040;3.856;2022-08-19T15:42:06;26.00;99.90
33149;DHT22;19506;51.040;3.856;2022-08-19T15:44:32;25.90;99.90
33149;DHT22;19506;51.040;3.856;2022-08-19T15:46:58;25.90;99.90
33149;DHT22;19506;51.040;3.856;2022-08-19T15:49:24;25.90;99.90
33149;DHT22;19506;51.040;3.856;2022-08-19T15:51:50;25.90;99.90
33149;DHT22;19506;51.040;3.856;2022-08-19T15:54:20;25.80;99.90
33149;DHT22;19506;51.040;3.856;2022-08-19T15:56:47;25.80;99.90
33149;DHT22;19506;51.040;3.856;2022-08-19T15:59:32;25.80;99.90
33149;DHT22;19506;51.040;3.856;2022-08-19T16:02:18;25.70;99.90
33149;DHT22;19506;51.040;3.856;2022-08-19T16:05:07;25.70;99.90
33149;DHT22;19506;51.040;3.856;2022-08-19T16:07:52;25.60;99.90
33149;DHT22;19506;51.040;3.856;2022-08-19T16:10:18;25.70;99.90
33149;DHT22;19506;51.040;3.856;2022-08-19T16:12:44;25.70;99.90
33149;DHT22;19506;51.040;3.856;2022-08-19T16:15:11;25.60;99.90
33149;DHT22;19506;51.040;3.856;2022-08-19T16:17:40;25.60;99.90
33149;DHT22;19506;51.040;3.856;2022-08-19T16:20:07;25.50;99.90
33149;DHT22;19506;51.040;3.856;2022-08-19T16:22:34;25.50;99.90
33149;DHT22;19506;51.040;3.856;2022-08-19T16:25:00;25.50;99.90
33149;DHT22;19506;51.040;3.856;2022-08-19T16:27:27;25.50;99.90
33149;DHT22;19506;51.040;3.856;2022-08-19T16:29:53;25.50;99.90
33149;DHT22;19506;51.040;3.856;2022-08-19T16:32:19;25.50;99.90
33149;DHT22;19506;51.040;3.856;2022-08-19T16:34:46;25.40;99.90
33149;DHT22;19506;51.040;3.856;2022-08-19T16:37:12;25.50;99.90
33149;DHT22;19506;51.040;3.856;2022-08-19T16:39:38;25.50;99.90
33149;DHT22;19506;51.040;3.856;2022-08-19T16:42:06;25.40;99.90
33149;DHT22;19506;51.040;3.856;2022-08-19T16:44:32;25.40;99.90
33149;DHT22;19506;51.040;3.856;2022-08-19T16:46:58;25.40;99.90
33149;DHT22;19506;51.040;3.856;2022-08-19T16:49:24;25.30;99.90
33149;DHT22;19506;51.040;3.856;2022-08-19T16:51:51;25.40;99.90
33149;DHT22;19506;51.040;3.856;2022-08-19T16:54:17;25.30;99.90
33149;DHT22;19506;51.040;3.856;2022-08-19T16:56:43;25.30;99.90
33149;DHT22;19506;51.040;3.856;2022-08-19T16:59:09;25.30;99.90
33149;DHT22;19506;51.040;3.856;2022-08-19T17:01:35;25.30;99.90
33149;DHT22;19506;51.040;3.856;2022-08-19T17:04:02;25.30;99.90
33149;DHT22;19506;51.040;3.856;2022-08-19T17:06:29;25.20;99.90
33149;DHT22;19506;51.040;3.856;2022-08-19T17:09:00;25.20;99.90
33149;DHT22;19506;51.040;3.856;2022-08-19T17:11:27;25.10;99.90
33149;DHT22;19506;51.040;3.856;2022-08-19T17:13:53;25.10;99.90
33149;DHT22;19506;51.040;3.856;2022-08-19T17:16:24;25.10;99.90
33149;DHT22;19506;51.040;3.856;2022-08-19T17:18:51;25.20;99.90
33149;DHT22;19506;51.040;3.856;2022-08-19T17:21:19;25.10;99.90
33149;DHT22;19506;51.040;3.856;2022-08-19T17:23:45;25.10;99.90
33149;DHT22;19506;51.040;3.856;2022-08-19T17:26:12;25.00;99.90
33149;DHT22;19506;51.040;3.856;2022-08-19T17:28:38;25.00;99.90
33149;DHT22;19506;51.040;3.856;2022-08-19T17:31:04;24.90;99.90
33149;DHT22;19506;51.040;3.856;2022-08-19T17:33:32;24.90;99.90
33149;DHT22;19506;51.040;3.856;2022-08-19T17:35:57;24.90;99.90
33149;DHT22;19506;51.040;3.856;2022-08-19T17:38:23;24.80;99.90
33149;DHT22;19506;51.040;3.856;2022-08-19T17:40:51;24.80;99.90
33149;DHT22;19506;51.040;3.856;2022-08-19T17:43:17;24.70;99.90
33149;DHT22;19506;51.040;3.856;2022-08-19T17:45:45;24.70;99.90
33149;DHT22;19506;51.040;3.856;2022-08-19T17:48:11;24.70;99.90
33149;DHT22;19506;51.040;3.856;2022-08-19T17:50:38;24.70;99.90
33149;DHT22;19506;51.040;3.856;2022-08-19T17:53:05;24.60;99.90
33149;DHT22;19506;51.040;3.856;2022-08-19T17:55:31;24.60;99.90
33149;DHT22;19506;51.040;3.856;2022-08-19T17:57:59;24.60;99.90
33149;DHT22;19506;51.040;3.856;2022-08-19T18:00:24;24.60;99.90
33149;DHT22;19506;51.040;3.856;2022-08-19T18:02:53;24.60;99.90
33149;DHT22;19506;51.040;3.856;2022-08-19T18:05:21;24.60;99.90
33149;DHT22;19506;51.040;3.856;2022-08-19T18:07:52;24.50;99.90
33149;DHT22;19506;51.040;3.856;2022-08-19T18:10:22;24.50;99.90
33149;DHT22;19506;51.040;3.856;2022-08-19T18:12:49;24.50;99.90
33149;DHT22;19506;51.040;3.856;2022-08-19T18:15:16;24.50;99.90
33149;DHT22;19506;51.040;3.856;2022-08-19T18:17:42;24.50;99.90
33149;DHT22;19506;51.040;3.856;2022-08-19T18:20:11;24.50;99.90
33149;DHT22;19506;51.040;3.856;2022-08-19T18:22:40;24.50;99.90
33149;DHT22;19506;51.040;3.856;2022-08-19T18:25:26;24.50;99.90
33149;DHT22;19506;51.040;3.856;2022-08-19T18:27:54;24.50;99.90
33149;DHT22;19506;51.040;3.856;2022-08-19T18:30:22;24.50;99.90
33149;DHT22;19506;51.040;3.856;2022-08-19T18:32:49;24.60;99.90
33149;DHT22;19506;51.040;3.856;2022-08-19T18:35:22;24.60;99.90
33149;DHT22;19506;51.040;3.856;2022-08-19T18:37:51;24.60;99.90
33149;DHT22;19506;51.040;3.856;2022-08-19T18:40:19;24.60;99.90
33149;DHT22;19506;51.040;3.856;2022-08-19T18:43:05;24.60;99.90
33149;DHT22;19506;51.040;3.856;2022-08-19T18:45:59;24.60;99.90
33149;DHT22;19506;51.040;3.856;2022-08-19T18:48:43;24.70;99.90
33149;DHT22;19506;51.040;3.856;2022-08-19T18:51:28;24.70;99.90
33149;DHT22;19506;51.040;3.856;2022-08-19T18:53:55;24.70;99.90
33149;DHT22;19506;51.040;3.856;2022-08-19T18:56:24;24.70;99.90
33149;DHT22;19506;51.040;3.856;2022-08-19T18:58:53;24.70;99.90
33149;DHT22;19506;51.040;3.856;2022-08-19T19:01:28;24.70;99.90
33149;DHT22;19506;51.040;3.856;2022-08-19T19:03:58;24.70;99.90
33149;DHT22;19506;51.040;3.856;2022-08-19T19:06:28;24.70;99.90
33149;DHT22;19506;51.040;3.856;2022-08-19T19:08:55;24.70;99.90
33149;DHT22;19506;51.040;3.856;2022-08-19T19:11:33;24.70;99.90
33149;DHT22;19506;51.040;3.856;2022-08-19T19:14:01;24.60;99.90
33149;DHT22;19506;51.040;3.856;2022-08-19T19:16:28;24.70;99.90
33149;DHT22;19506;51.040;3.856;2022-08-19T19:18:54;24.70;99.90
33149;DHT22;19506;51.040;3.856;2022-08-19T19:21:22;24.70;99.90
33149;DHT22;19506;51.040;3.856;2022-08-19T19:23:49;24.70;99.90
33149;DHT22;19506;51.040;3.856;2022-08-19T19:26:15;24.70;99.90
33149;DHT22;19506;51.040;3.856;2022-08-19T19:28:41;24.70;99.90
33149;DHT22;19506;51.040;3.856;2022-08-19T19:31:28;24.70;99.90
33149;DHT22;19506;51.040;3.856;2022-08-19T19:33:54;24.80;99.90
33149;DHT22;19506;51.040;3.856;2022-08-19T19:36:21;24.80;99.90
33149;DHT22;19506;51.040;3.856;2022-08-19T19:38:46;24.80;99.90
33149;DHT22;19506;51.040;3.856;2022-08-19T19:41:14;24.90;99.90
33149;DHT22;19506;51.040;3.856;2022-08-19T19:43:40;24.90;99.90
33149;DHT22;19506;51.040;3.856;2022-08-19T19:46:06;24.80;99.90
33149;DHT22;19506;51.040;3.856;2022-08-19T19:48:31;24.80;99.90
33149;DHT22;19506;51.040;3.856;2022-08-19T19:50:57;24.80;99.90
33149;DHT22;19506;51.040;3.856;2022-08-19T19:53:24;24.70;99.90
33149;DHT22;19506;51.040;3.856;2022-08-19T19:55:51;24.70;99.90
33149;DHT22;19506;51.040;3.856;2022-08-19T19:58:20;24.70;99.90
33149;DHT22;19506;51.040;3.856;2022-08-19T20:00:46;24.70;99.90
33149;DHT22;19506;51.040;3.856;2022-08-19T20:03:11;24.60;99.90
33149;DHT22;19506;51.040;3.856;2022-08-19T20:05:37;24.60;99.90
33149;DHT22;19506;51.040;3.856;2022-08-19T20:08:03;24.60;99.90
33149;DHT22;19506;51.040;3.856;2022-08-19T20:10:47;24.60;99.90
33149;DHT22;19506;51.040;3.856;2022-08-19T20:13:13;24.60;99.90
33149;DHT22;19506;51.040;3.856;2022-08-19T20:15:40;24.50;99.90
33149;DHT22;19506;51.040;3.856;2022-08-19T20:18:09;24.60;99.90
33149;DHT22;19506;51.040;3.856;2022-08-19T20:20:35;24.70;99.90
33149;DHT22;19506;51.040;3.856;2022-08-19T20:23:00;24.70;99.90
33149;DHT22;19506;51.040;3.856;2022-08-19T20:25:26;24.80;99.90
33149;DHT22;19506;51.040;3.856;2022-08-19T20:27:52;24.90;99.90
33149;DHT22;19506;51.040;3.856;2022-08-19T20:30:19;24.90;99.90
33149;DHT22;19506;51.040;3.856;2022-08-19T20:32:46;24.90;99.90
33149;DHT22;19506;51.040;3.856;2022-08-19T20:35:14;24.90;99.90
33149;DHT22;19506;51.040;3.856;2022-08-19T20:37:40;25.00;99.90
33149;DHT22;19506;51.040;3.856;2022-08-19T20:40:07;25.00;99.90
33149;DHT22;19506;51.040;3.856;2022-08-19T20:42:41;25.00;99.90
33149;DHT22;19506;51.040;3.856;2022-08-19T20:45:13;25.00;99.90
33149;DHT22;19506;51.040;3.856;2022-08-19T20:47:40;25.00;99.90
33149;DHT22;19506;51.040;3.856;2022-08-19T20:50:07;25.00;99.90
33149;DHT22;19506;51.040;3.856;2022-08-19T20:52:34;25.00;99.90
33149;DHT22;19506;51.040;3.856;2022-08-19T20:55:03;25.00;99.90
33149;DHT22;19506;51.040;3.856;2022-08-19T20:57:29;25.00;99.90
33149;DHT22;19506;51.040;3.856;2022-08-19T20:59:54;25.00;99.90
33149;DHT22;19506;51.040;3.856;2022-08-19T21:02:20;25.00;99.90
33149;DHT22;19506;51.040;3.856;2022-08-19T21:04:46;25.00;99.90
33149;DHT22;19506;51.040;3.856;2022-08-19T21:07:16;25.00;99.90
33149;DHT22;19506;51.040;3.856;2022-08-19T21:09:42;24.90;99.90
33149;DHT22;19506;51.040;3.856;2022-08-19T21:12:10;24.90;99.90
33149;DHT22;19506;51.040;3.856;2022-08-19T21:14:41;24.80;99.90
33149;DHT22;19506;51.040;3.856;2022-08-19T21:17:08;24.70;99.90
33149;DHT22;19506;51.040;3.856;2022-08-19T21:19:33;24.70;99.90
33149;DHT22;19506;51.040;3.856;2022-08-19T21:22:00;24.70;99.90
33149;DHT22;19506;51.040;3.856;2022-08-19T21:24:27;24.70;99.90
33149;DHT22;19506;51.040;3.856;2022-08-19T21:26:52;24.70;99.90
33149;DHT22;19506;51.040;3.856;2022-08-19T21:29:19;24.70;99.90
33149;DHT22;19506;51.040;3.856;2022-08-19T21:31:45;24.70;99.90
33149;DHT22;19506;51.040;3.856;2022-08-19T21:34:11;24.70;99.90
33149;DHT22;19506;51.040;3.856;2022-08-19T21:36:36;24.70;99.90
33149;DHT22;19506;51.040;3.856;2022-08-19T21:39:03;24.70;99.90
33149;DHT22;19506;51.040;3.856;2022-08-19T21:41:28;24.80;99.90
33149;DHT22;19506;51.040;3.856;2022-08-19T21:43:54;24.80;99.90
33149;DHT22;19506;51.040;3.856;2022-08-19T21:46:20;24.70;99.90
